Time;durP1;ratioP1;P1;durP2;ratioP2;P2;SDS_P1;SDS_P2;PMS_P1;PMS_P2;Temp;Humidity;BMP_temperature;BMP_pressure;BME280_temperature;BME280_humidity;BME280_pressure;Samples;Min_cycle;Max_cycle;Signal;HPM_P1;HPM_P2
2023/12/04 00:00:44;;;;;;;0.77;0.77;;;-3.40;99.90;;;;;;4429621;32;20450;-61
2023/12/04 00:03:10;;;;;;;3.45;1.90;;;-3.40;99.90;;;;;;4413381;32;20179;-60
2023/12/04 00:05:35;;;;;;;0.50;0.50;;;-3.40;99.90;;;;;;4430744;32;20080;-58
2023/12/04 00:08:01;;;;;;;3.22;1.70;;;-3.50;99.90;;;;;;4432608;32;20555;-60
2023/12/04 00:10:26;;;;;;;0.45;0.45;;;-3.40;99.90;;;;;;4431915;32;20160;-59
2023/12/04 00:12:52;;;;;;;0.55;0.55;;;-3.40;99.90;;;;;;4429213;32;20434;-59
2023/12/04 00:15:19;;;;;;;0.50;0.50;;;-3.50;99.90;;;;;;4415949;32;20494;-60
2023/12/04 00:17:45;;;;;;;0.82;0.82;;;-3.50;99.90;;;;;;4429877;32;20078;-59
2023/12/04 00:20:10;;;;;;;5.57;1.73;;;-3.20;99.90;;;;;;4432013;32;20076;-60
2023/12/04 00:22:37;;;;;;;0.60;0.60;;;-3.20;99.90;;;;;;4416648;32;20070;-60
2023/12/04 00:25:04;;;;;;;1.45;1.35;;;-3.00;99.90;;;;;;4404382;32;20072;-58
2023/12/04 00:27:29;;;;;;;0.47;0.47;;;-2.90;99.90;;;;;;4417424;32;20066;-58
2023/12/04 00:29:56;;;;;;;1.05;1.05;;;-2.80;99.90;;;;;;4429027;32;20097;-59
2023/12/04 00:32:21;;;;;;;0.50;0.50;;;-2.80;99.90;;;;;;4425332;32;20061;-61
2023/12/04 00:34:47;;;;;;;0.70;0.70;;;-2.80;99.90;;;;;;4408736;32;20433;-60
2023/12/04 00:37:12;;;;;;;0.55;0.55;;;-2.80;99.90;;;;;;4427029;32;20069;-60
2023/12/04 00:39:38;;;;;;;0.85;0.85;;;-2.50;99.90;;;;;;4429467;32;20081;-61
2023/12/04 00:42:03;;;;;;;2.30;1.62;;;-2.70;99.90;;;;;;4427859;32;20828;-60
2023/12/04 00:44:29;;;;;;;0.57;0.57;;;-2.40;99.90;;;;;;4430647;32;20072;-60
2023/12/04 00:46:54;;;;;;;0.40;0.40;;;-2.80;99.90;;;;;;4428531;32;20053;-58
2023/12/04 00:49:20;;;;;;;0.55;0.55;;;-3.00;99.90;;;;;;4429006;32;20098;-57
2023/12/04 00:51:45;;;;;;;0.60;0.60;;;-3.10;99.90;;;;;;4434815;32;20086;-56
2023/12/04 00:54:11;;;;;;;0.82;0.82;;;-3.10;99.90;;;;;;4439704;32;20073;-59
2023/12/04 00:56:39;;;;;;;1.77;1.65;;;-3.10;99.90;;;;;;4433155;32;20671;-57
2023/12/04 00:59:06;;;;;;;0.75;0.75;;;-3.20;99.90;;;;;;4431551;32;20092;-57
2023/12/04 01:01:32;;;;;;;3.03;1.75;;;-3.10;99.90;;;;;;4428368;32;20074;-58
2023/12/04 01:03:57;;;;;;;4.82;1.52;;;-3.00;99.90;;;;;;4417497;32;20089;-61
2023/12/04 01:06:23;;;;;;;0.50;0.50;;;-3.10;99.90;;;;;;4427875;32;20069;-56
2023/12/04 01:08:49;;;;;;;0.52;0.52;;;-3.20;99.90;;;;;;4413705;32;20082;-61
2023/12/04 01:11:16;;;;;;;18.30;2.10;;;-3.30;99.90;;;;;;4430138;32;20069;-60
2023/12/04 01:13:42;;;;;;;0.50;0.50;;;-3.30;99.90;;;;;;4414102;32;20119;-60
2023/12/04 01:16:08;;;;;;;0.40;0.40;;;-3.30;99.90;;;;;;4413871;32;20070;-60
2023/12/04 01:18:33;;;;;;;0.43;0.43;;;-3.40;99.90;;;;;;4427900;32;20065;-58
2023/12/04 01:20:59;;;;;;;0.60;0.60;;;-3.30;99.90;;;;;;4432352;32;20128;-57
2023/12/04 01:23:24;;;;;;;0.60;0.60;;;-3.30;99.90;;;;;;4428127;32;20604;-58
2023/12/04 01:25:50;;;;;;;0.47;0.47;;;-3.10;99.90;;;;;;4433053;32;20149;-58
2023/12/04 01:28:15;;;;;;;0.50;0.50;;;-3.30;99.90;;;;;;4417832;32;20101;-57
2023/12/04 01:30:41;;;;;;;0.52;0.52;;;-3.30;99.90;;;;;;4429431;32;20087;-58
2023/12/04 01:33:08;;;;;;;2.83;2.05;;;-3.30;99.90;;;;;;4433473;32;20456;-58
2023/12/04 01:35:33;;;;;;;0.50;0.50;;;-3.10;99.90;;;;;;4417463;32;20074;-56
2023/12/04 01:37:59;;;;;;;0.60;0.60;;;-3.40;99.90;;;;;;4417608;32;20066;-58
2023/12/04 01:40:25;;;;;;;1.25;1.15;;;-3.40;99.90;;;;;;4432328;32;20065;-60
2023/12/04 01:42:51;;;;;;;0.40;0.40;;;-3.40;99.90;;;;;;4426596;32;20069;-58
2023/12/04 01:45:16;;;;;;;1.60;1.40;;;-3.40;99.90;;;;;;4427944;32;20133;-61
2023/12/04 01:47:42;;;;;;;0.50;0.50;;;-3.50;99.90;;;;;;4430186;32;20479;-58
2023/12/04 01:50:08;;;;;;;3.30;1.73;;;-3.50;99.90;;;;;;4429888;32;20121;-56
2023/12/04 01:52:35;;;;;;;0.50;0.50;;;-3.60;99.90;;;;;;4431978;32;20069;-60
2023/12/04 01:55:01;;;;;;;0.50;0.50;;;-3.60;99.90;;;;;;4413806;32;20061;-58
2023/12/04 01:57:27;;;;;;;1.00;0.90;;;-3.50;99.90;;;;;;4431196;32;20082;-60
2023/12/04 01:59:52;;;;;;;0.70;0.70;;;-3.50;99.90;;;;;;4428678;32;20530;-60
2023/12/04 02:02:18;;;;;;;0.57;0.57;;;-3.50;99.90;;;;;;4430174;32;20081;-59
2023/12/04 02:04:43;;;;;;;0.60;0.60;;;-3.60;99.90;;;;;;4437505;32;20077;-59
2023/12/04 02:07:09;;;;;;;0.50;0.50;;;-3.40;99.90;;;;;;4430539;32;20441;-60
2023/12/04 02:09:34;;;;;;;0.50;0.50;;;-3.50;99.90;;;;;;4427705;32;20132;-59
2023/12/04 02:12:00;;;;;;;0.50;0.50;;;-3.40;99.90;;;;;;4425544;32;20148;-59
2023/12/04 02:14:26;;;;;;;0.70;0.70;;;-3.40;99.90;;;;;;4413702;32;20068;-58
2023/12/04 02:16:54;;;;;;;0.50;0.50;;;-3.50;99.90;;;;;;4415305;32;20107;-60
2023/12/04 02:19:20;;;;;;;0.50;0.50;;;-3.50;99.90;;;;;;4429334;32;20069;-60
2023/12/04 02:21:46;;;;;;;0.40;0.40;;;-3.40;99.90;;;;;;4429667;32;20512;-59
2023/12/04 02:24:11;;;;;;;0.60;0.60;;;-3.40;99.90;;;;;;4414771;32;20124;-60
2023/12/04 02:26:47;;;;;;;0.60;0.60;;;-3.40;99.90;;;;;;4427211;32;20422;-59
2023/12/04 02:29:16;;;;;;;0.95;0.95;;;-3.40;99.90;;;;;;4412695;32;20121;-57
2023/12/04 02:31:43;;;;;;;0.45;0.45;;;-3.40;99.90;;;;;;4427342;32;21112;-60
2023/12/04 02:34:11;;;;;;;0.75;0.75;;;-3.40;99.90;;;;;;4413769;32;20113;-60
2023/12/04 02:36:37;;;;;;;0.50;0.50;;;-3.50;99.90;;;;;;4428026;32;20077;-59
2023/12/04 02:39:03;;;;;;;0.62;0.60;;;-3.50;99.90;;;;;;4416870;32;20194;-60
2023/12/04 02:41:29;;;;;;;0.60;0.60;;;-3.40;99.90;;;;;;4428474;32;20121;-60
2023/12/04 02:43:54;;;;;;;0.60;0.60;;;-3.50;99.90;;;;;;4426379;32;20053;-59
2023/12/04 02:46:19;;;;;;;0.95;0.95;;;-3.50;99.90;;;;;;4428924;32;20308;-58
2023/12/04 02:48:45;;;;;;;2.25;1.70;;;-3.60;99.90;;;;;;4425802;32;20086;-58
2023/12/04 02:51:11;;;;;;;0.70;0.70;;;-3.60;99.90;;;;;;4426602;32;20458;-60
2023/12/04 02:53:36;;;;;;;0.50;0.50;;;-3.70;99.90;;;;;;4425629;32;20066;-60
2023/12/04 02:56:02;;;;;;;0.88;0.88;;;-3.70;99.90;;;;;;4415697;32;20069;-59
2023/12/04 02:58:27;;;;;;;0.50;0.50;;;-3.70;99.90;;;;;;4413058;32;20132;-59
2023/12/04 03:00:53;;;;;;;0.50;0.50;;;-3.80;99.90;;;;;;4427540;32;20081;-60
2023/12/04 03:03:18;;;;;;;1.37;1.27;;;-3.80;99.90;;;;;;4429657;32;20493;-60
2023/12/04 03:05:43;;;;;;;2.87;1.60;;;-3.70;99.90;;;;;;4430959;32;20078;-60
2023/12/04 03:08:09;;;;;;;0.40;0.40;;;-3.70;99.90;;;;;;4428518;32;20107;-60
2023/12/04 03:10:34;;;;;;;0.40;0.40;;;-3.60;99.90;;;;;;4428789;32;20104;-59
2023/12/04 03:13:00;;;;;;;1.10;1.02;;;-3.70;99.90;;;;;;4426747;32;20061;-61
2023/12/04 03:15:28;;;;;;;0.43;0.43;;;-3.70;99.90;;;;;;4429207;32;20129;-59
2023/12/04 03:17:54;;;;;;;0.60;0.60;;;-3.70;99.90;;;;;;4425602;32;20119;-59
2023/12/04 03:20:19;;;;;;;1.98;0.80;;;-3.60;99.90;;;;;;4427471;32;20804;-60
2023/12/04 03:22:45;;;;;;;1.55;1.30;;;-3.70;99.90;;;;;;4427637;32;20644;-59
2023/12/04 03:25:10;;;;;;;2.08;0.70;;;-3.70;99.90;;;;;;4428440;32;20085;-60
2023/12/04 03:27:36;;;;;;;1.45;1.37;;;-3.80;99.90;;;;;;4428781;32;20058;-58
2023/12/04 03:30:02;;;;;;;0.40;0.40;;;-3.70;99.90;;;;;;4424404;32;20072;-57
2023/12/04 03:32:27;;;;;;;0.70;0.70;;;-3.70;99.90;;;;;;4426899;32;20521;-60
2023/12/04 03:34:53;;;;;;;0.60;0.60;;;-3.60;99.90;;;;;;4428740;32;20094;-58
2023/12/04 03:37:19;;;;;;;0.60;0.60;;;-3.60;99.90;;;;;;4426855;32;20527;-58
2023/12/04 03:39:45;;;;;;;1.35;1.27;;;-4.00;99.90;;;;;;4417503;32;20065;-57
2023/12/04 03:42:10;;;;;;;1.73;1.58;;;-3.50;99.90;;;;;;4431949;32;21087;-59
2023/12/04 03:44:36;;;;;;;0.70;0.70;;;-3.50;99.90;;;;;;4432666;32;20065;-59
2023/12/04 03:47:01;;;;;;;0.60;0.60;;;-3.40;99.90;;;;;;4429915;32;20069;-61
2023/12/04 03:49:26;;;;;;;0.50;0.50;;;-3.40;99.90;;;;;;4432049;32;20057;-59
2023/12/04 03:51:52;;;;;;;1.45;1.15;;;-3.30;99.90;;;;;;4429811;32;20391;-60
2023/12/04 03:54:17;;;;;;;0.52;0.52;;;-3.40;99.90;;;;;;4432868;32;20061;-58
2023/12/04 03:56:43;;;;;;;2.20;1.33;;;-3.40;99.90;;;;;;4432365;32;20159;-60
2023/12/04 03:59:10;;;;;;;0.70;0.70;;;-3.50;99.90;;;;;;4430314;32;20093;-57
2023/12/04 04:01:36;;;;;;;5.22;2.22;;;-3.40;99.90;;;;;;4433195;32;20066;-59
2023/12/04 04:04:01;;;;;;;0.40;0.40;;;-3.50;99.90;;;;;;4435393;32;20081;-60
2023/12/04 04:06:27;;;;;;;0.50;0.50;;;-3.50;99.90;;;;;;4432897;32;20074;-59
2023/12/04 04:08:52;;;;;;;1.30;1.23;;;-3.50;99.90;;;;;;4430939;32;20433;-59
2023/12/04 04:11:18;;;;;;;0.50;0.50;;;-3.50;99.90;;;;;;4438639;32;20070;-59
2023/12/04 04:13:43;;;;;;;0.70;0.70;;;-3.50;99.90;;;;;;4434688;32;20127;-59
2023/12/04 04:16:15;;;;;;;0.90;0.90;;;-3.40;99.90;;;;;;4436489;32;20266;-59
2023/12/04 04:18:41;;;;;;;0.50;0.50;;;-3.40;99.90;;;;;;4432859;32;20073;-60
2023/12/04 04:21:07;;;;;;;0.40;0.40;;;-3.50;99.90;;;;;;4442087;32;20068;-58
2023/12/04 04:23:32;;;;;;;0.60;0.60;;;-3.50;99.90;;;;;;4432241;32;20183;-60
2023/12/04 04:25:58;;;;;;;15.25;2.28;;;-3.40;99.90;;;;;;4431325;32;20133;-60
2023/12/04 04:28:23;;;;;;;0.50;0.50;;;-3.50;99.90;;;;;;4431503;32;20136;-59
2023/12/04 04:30:49;;;;;;;0.60;0.60;;;-3.50;99.90;;;;;;4429206;32;20517;-58
2023/12/04 04:33:14;;;;;;;0.93;0.93;;;-3.50;99.90;;;;;;4433309;32;20085;-60
2023/12/04 04:35:40;;;;;;;0.80;0.80;;;-3.50;99.90;;;;;;4429725;32;20568;-59
2023/12/04 04:38:05;;;;;;;1.27;1.25;;;-3.50;99.90;;;;;;4431416;32;20110;-60
2023/12/04 04:40:30;;;;;;;0.75;0.75;;;-3.60;99.90;;;;;;4430556;32;20064;-59
2023/12/04 04:42:56;;;;;;;0.40;0.40;;;-3.60;99.90;;;;;;4429432;32;20061;-58
2023/12/04 04:45:21;;;;;;;0.47;0.47;;;-3.60;99.90;;;;;;4430289;32;20470;-60
2023/12/04 04:47:47;;;;;;;1.23;1.00;;;-3.50;99.90;;;;;;4429300;32;20072;-61
2023/12/04 04:50:12;;;;;;;0.50;0.50;;;-3.60;99.90;;;;;;4430805;32;20062;-59
2023/12/04 04:52:38;;;;;;;0.47;0.47;;;-3.70;99.90;;;;;;4431544;32;20061;-59
2023/12/04 04:55:05;;;;;;;0.70;0.70;;;-3.60;99.90;;;;;;4430114;32;20112;-60
2023/12/04 04:57:30;;;;;;;0.40;0.40;;;-3.60;99.90;;;;;;4427459;32;20080;-59
2023/12/04 04:59:56;;;;;;;0.40;0.40;;;-3.60;99.90;;;;;;4432135;32;20073;-59
2023/12/04 05:02:21;;;;;;;1.12;1.12;;;-3.60;99.90;;;;;;4432072;32;21562;-59
2023/12/04 05:04:47;;;;;;;4.03;1.65;;;-3.60;99.90;;;;;;4431587;32;20297;-60
2023/12/04 05:07:13;;;;;;;1.70;1.17;;;-3.70;99.90;;;;;;4431990;32;20065;-59
2023/12/04 05:09:38;;;;;;;1.95;1.33;;;-3.70;99.90;;;;;;4426440;32;20423;-59
2023/12/04 05:12:04;;;;;;;0.60;0.60;;;-3.70;99.90;;;;;;4428831;32;20089;-60
2023/12/04 05:14:29;;;;;;;0.50;0.50;;;-3.60;99.90;;;;;;4416994;32;20073;-57
2023/12/04 05:16:55;;;;;;;0.60;0.60;;;-3.60;99.90;;;;;;4430094;32;20061;-61
2023/12/04 05:19:20;;;;;;;0.50;0.50;;;-3.50;99.90;;;;;;4429060;32;20073;-60
2023/12/04 05:21:46;;;;;;;2.37;1.58;;;-3.40;99.90;;;;;;4426330;32;20061;-60
2023/12/04 05:24:11;;;;;;;0.50;0.50;;;-3.40;99.90;;;;;;4427978;32;20105;-60
2023/12/04 05:26:37;;;;;;;0.55;0.55;;;-3.30;99.90;;;;;;4432299;32;20451;-60
2023/12/04 05:29:02;;;;;;;4.10;2.00;;;-3.40;99.90;;;;;;4431896;32;20178;-60
2023/12/04 05:31:28;;;;;;;0.52;0.52;;;-3.40;99.90;;;;;;4434138;32;20088;-60
2023/12/04 05:33:53;;;;;;;1.60;1.25;;;-3.40;99.90;;;;;;4430894;32;20415;-60
2023/12/04 05:36:19;;;;;;;0.98;0.98;;;-3.30;99.90;;;;;;4432266;32;20070;-60
2023/12/04 05:38:44;;;;;;;2.83;1.27;;;-3.40;99.90;;;;;;4430763;32;20439;-59
2023/12/04 05:41:10;;;;;;;0.70;0.70;;;-3.40;99.90;;;;;;4427169;32;20152;-60
2023/12/04 05:43:35;;;;;;;0.55;0.55;;;-3.40;99.90;;;;;;4432765;32;20089;-60
2023/12/04 05:46:01;;;;;;;0.60;0.60;;;-3.50;99.90;;;;;;4430717;32;20073;-59
2023/12/04 05:48:27;;;;;;;3.30;2.25;;;-3.50;99.90;;;;;;4428733;32;20100;-60
2023/12/04 05:50:52;;;;;;;1.92;1.75;;;-3.40;99.90;;;;;;4429146;32;20429;-59
2023/12/04 05:53:18;;;;;;;0.57;0.57;;;-3.40;99.90;;;;;;4428550;32;20066;-60
2023/12/04 05:55:46;;;;;;;0.50;0.50;;;-3.40;99.90;;;;;;4429585;32;20069;-60
2023/12/04 05:58:11;;;;;;;0.47;0.47;;;-3.50;99.90;;;;;;4426200;32;20081;-59
2023/12/04 06:00:37;;;;;;;1.80;1.67;;;-3.40;99.90;;;;;;4424466;32;20117;-60
2023/12/04 06:03:02;;;;;;;0.80;0.80;;;-3.40;99.90;;;;;;4428077;32;20066;-60
2023/12/04 06:05:28;;;;;;;4.80;1.95;;;-3.40;99.90;;;;;;4416841;32;20586;-60
2023/12/04 06:07:53;;;;;;;0.40;0.40;;;-3.40;99.90;;;;;;4416666;32;20077;-59
2023/12/04 06:10:19;;;;;;;0.60;0.60;;;-3.30;99.90;;;;;;4425230;32;20536;-60
2023/12/04 06:12:44;;;;;;;3.60;2.40;;;-3.30;99.90;;;;;;4421998;32;20133;-60
2023/12/04 06:15:10;;;;;;;0.40;0.40;;;-3.40;99.90;;;;;;4416330;32;20073;-61
2023/12/04 06:17:35;;;;;;;0.40;0.40;;;-3.30;99.90;;;;;;4427390;32;20061;-58
2023/12/04 06:20:01;;;;;;;0.85;0.73;;;-3.40;99.90;;;;;;4424271;32;20509;-59
2023/12/04 06:22:26;;;;;;;1.40;1.30;;;-3.30;99.90;;;;;;4414691;32;20439;-60
2023/12/04 06:24:52;;;;;;;0.50;0.50;;;-3.30;99.90;;;;;;4424241;32;20422;-60
2023/12/04 06:27:20;;;;;;;0.40;0.40;;;-3.30;99.90;;;;;;4402530;32;20726;-58
2023/12/04 06:29:47;;;;;;;0.50;0.50;;;-3.30;99.90;;;;;;4401181;32;20077;-58
2023/12/04 06:32:13;;;;;;;0.50;0.50;;;-3.30;99.90;;;;;;4415711;32;20098;-56
2023/12/04 06:34:38;;;;;;;0.68;0.68;;;-3.20;99.90;;;;;;4417665;32;20089;-56
2023/12/04 06:37:09;;;;;;;1.15;1.12;;;-3.10;99.90;;;;;;4418937;32;20119;-57
2023/12/04 06:39:37;;;;;;;0.70;0.70;;;-3.00;99.90;;;;;;4423722;32;21704;-57
2023/12/04 06:42:03;;;;;;;0.88;0.88;;;-3.00;99.90;;;;;;4405475;32;20077;-58
2023/12/04 06:44:29;;;;;;;0.40;0.40;;;-3.00;99.90;;;;;;4415644;32;20092;-59
2023/12/04 06:46:59;;;;;;;0.50;0.50;;;-2.90;99.90;;;;;;4407288;32;20619;-61
2023/12/04 06:49:27;;;;;;;0.50;0.50;;;-2.90;99.90;;;;;;4412318;32;21540;-59
2023/12/04 06:51:53;;;;;;;0.70;0.70;;;-2.90;99.90;;;;;;4410296;32;20121;-59
2023/12/04 06:54:18;;;;;;;0.50;0.50;;;-2.80;99.90;;;;;;4412266;32;20089;-60
2023/12/04 06:56:44;;;;;;;4.80;2.33;;;-2.70;99.90;;;;;;4403520;32;20220;-58
2023/12/04 06:59:10;;;;;;;1.65;1.05;;;;;;;;;;4395215;32;20206;-58
2023/12/04 07:01:36;;;;;;;0.73;0.73;;;;;;;;;;4393865;32;20069;-60
2023/12/04 07:04:09;;;;;;;0.52;0.52;;;;;;;;;;4405020;32;20078;-59
2023/12/04 07:06:35;;;;;;;0.60;0.60;;;;;;;;;;4410127;32;20108;-59
2023/12/04 07:09:01;;;;;;;1.75;1.08;;;;;;;;;;4408726;32;21276;-60
2023/12/04 07:11:27;;;;;;;0.60;0.60;;;;;;;;;;4405305;32;20090;-60
2023/12/04 07:13:53;;;;;;;0.50;0.50;;;;;;;;;;4402307;32;20126;-60
2023/12/04 07:16:19;;;;;;;0.40;0.40;;;;;;;;;;4403762;32;20140;-60
2023/12/04 07:18:44;;;;;;;1.27;1.23;;;;;;;;;;4406088;32;20128;-58
2023/12/04 07:21:10;;;;;;;0.90;0.90;;;;;;;;;;4407077;32;20597;-59
2023/12/04 07:23:36;;;;;;;0.50;0.50;;;;;;;;;;4402999;32;20748;-60
2023/12/04 07:26:03;;;;;;;0.62;0.62;;;;;;;;;;4412357;32;20139;-57
2023/12/04 07:28:29;;;;;;;0.70;0.70;;;;;;;;;;4407975;32;20233;-59
2023/12/04 07:30:55;;;;;;;0.65;0.65;;;;;;;;;;4410585;32;20081;-59
2023/12/04 07:33:21;;;;;;;0.65;0.65;;;;;;;;;;4411352;32;21147;-59
2023/12/04 07:35:47;;;;;;;0.75;0.75;;;;;;;;;;4404750;32;20093;-58
2023/12/04 07:38:13;;;;;;;0.95;0.93;;;;;;;;;;4410170;32;20073;-59
2023/12/04 07:40:39;;;;;;;1.00;0.98;;;;;;;;;;4407977;32;20098;-59
2023/12/04 07:43:05;;;;;;;1.33;1.25;;;;;;;;;;4403013;32;20157;-58
2023/12/04 07:45:31;;;;;;;1.80;1.08;;;;;;;;;;4405970;32;20390;-57
2023/12/04 07:47:57;;;;;;;0.60;0.60;;;;;;;;;;4406916;32;20101;-58
2023/12/04 07:50:24;;;;;;;0.57;0.57;;;;;;;;;;4414527;32;20081;-59
2023/12/04 07:52:50;;;;;;;0.40;0.40;;;;;;;;;;4405882;32;20105;-59
2023/12/04 07:55:16;;;;;;;0.50;0.50;;;;;;;;;;4412818;32;20689;-58
2023/12/04 07:57:41;;;;;;;1.08;0.98;;;;;;;;;;4415123;32;20219;-59
2023/12/04 08:02:36;;;;;;;2.30;1.40;;;;;;;;;;4410593;32;20073;-58
2023/12/04 08:05:02;;;;;;;0.60;0.60;;;;;;;;;;4409395;32;20560;-59
2023/12/04 08:07:28;;;;;;;0.60;0.60;;;;;;;;;;4416547;32;20687;-59
2023/12/04 08:09:54;;;;;;;0.50;0.50;;;;;;;;;;4406465;32;20085;-60
2023/12/04 08:12:20;;;;;;;0.88;0.88;;;;;;;;;;4410862;32;20556;-58
2023/12/04 08:14:46;;;;;;;0.45;0.45;;;-1.80;99.90;;;;;;4386567;32;20089;-58
2023/12/04 08:17:12;;;;;;;0.90;0.90;;;;;;;;;;4403565;32;21400;-60
2023/12/04 08:19:38;;;;;;;0.50;0.50;;;;;;;;;;4405498;32;20082;-58
2023/12/04 08:22:05;;;;;;;0.40;0.40;;;;;;;;;;4404584;32;20098;-59
2023/12/04 08:24:30;;;;;;;0.40;0.40;;;;;;;;;;4393305;32;20492;-57
2023/12/04 08:26:58;;;;;;;0.50;0.50;;;;;;;;;;4403148;32;20094;-58
2023/12/04 08:29:24;;;;;;;0.50;0.50;;;;;;;;;;4403777;32;21027;-57
2023/12/04 08:31:50;;;;;;;0.40;0.40;;;;;;;;;;4407014;32;20173;-57
2023/12/04 08:34:16;;;;;;;0.85;0.85;;;;;;;;;;4400032;32;20092;-56
2023/12/04 08:36:42;;;;;;;0.60;0.60;;;;;;;;;;4399701;32;21434;-59
2023/12/04 08:39:08;;;;;;;1.17;1.02;;;;;;;;;;4409464;32;20093;-59
2023/12/04 08:41:34;;;;;;;0.65;0.65;;;;;;;;;;4407132;32;20081;-57
2023/12/04 08:44:00;;;;;;;0.40;0.40;;;;;;;;;;4400815;32;20277;-59
2023/12/04 08:46:26;;;;;;;0.60;0.60;;;;;;;;;;4400804;32;20088;-56
2023/12/04 08:48:52;;;;;;;0.50;0.50;;;;;;;;;;4404668;32;20553;-59
2023/12/04 08:51:18;;;;;;;0.62;0.62;;;;;;;;;;4405904;32;20089;-58
2023/12/04 08:53:44;;;;;;;0.50;0.50;;;-1.30;99.90;;;;;;4385207;32;20157;-58
2023/12/04 08:56:10;;;;;;;0.65;0.65;;;;;;;;;;4398704;32;20077;-58
2023/12/04 08:58:36;;;;;;;0.70;0.70;;;;;;;;;;4406004;32;21366;-58
2023/12/04 09:01:03;;;;;;;0.77;0.77;;;-1.30;99.90;;;;;;4407561;32;20077;-57
2023/12/04 09:03:29;;;;;;;1.08;0.90;;;-1.30;99.90;;;;;;4416360;32;20604;-55
2023/12/04 09:05:55;;;;;;;1.08;0.73;;;;;;;;;;4414718;32;20102;-56
2023/12/04 09:08:23;;;;;;;0.80;0.80;;;;;;;;;;4411772;32;20086;-59
2023/12/04 09:10:49;;;;;;;0.40;0.40;;;;;;;;;;4385989;32;20382;-60
2023/12/04 09:13:15;;;;;;;1.08;1.05;;;;;;;;;;4414355;32;20435;-60
2023/12/04 09:15:41;;;;;;;1.10;0.93;;;;;;;;;;4412864;32;20113;-60
2023/12/04 09:18:07;;;;;;;0.50;0.50;;;;;;;;;;4418315;32;20430;-61
2023/12/04 09:20:33;;;;;;;0.90;0.90;;;;;;;;;;4400491;32;20085;-60
2023/12/04 09:22:59;;;;;;;0.40;0.40;;;;;;;;;;4415468;32;20196;-60
2023/12/04 09:25:25;;;;;;;0.60;0.60;;;;;;;;;;4414419;32;20089;-59
2023/12/04 09:27:51;;;;;;;0.60;0.60;;;;;;;;;;4410548;32;20082;-59
2023/12/04 09:30:17;;;;;;;1.15;1.05;;;;;;;;;;4405403;32;20097;-61
2023/12/04 09:32:42;;;;;;;0.77;0.77;;;;;;;;;;4389541;32;20187;-58
2023/12/04 09:35:09;;;;;;;0.40;0.40;;;;;;;;;;4407281;32;21014;-56
2023/12/04 09:37:35;;;;;;;0.32;0.32;;;;;;;;;;4409552;32;20082;-60
2023/12/04 09:40:01;;;;;;;0.50;0.50;;;;;;;;;;4404979;32;20077;-60
2023/12/04 09:42:27;;;;;;;0.70;0.70;;;;;;;;;;4408016;32;20853;-59
2023/12/04 09:44:54;;;;;;;2.12;1.80;;;;;;;;;;4402392;32;20089;-58
2023/12/04 09:47:22;;;;;;;0.40;0.40;;;;;;;;;;4403155;32;20089;-58
2023/12/04 09:49:48;;;;;;;0.60;0.60;;;;;;;;;;4388732;32;20620;-55
2023/12/04 09:52:15;;;;;;;1.50;1.40;;;;;;;;;;4379282;32;20101;-57
2023/12/04 09:54:41;;;;;;;9.90;1.62;;;;;;;;;;4405678;32;20097;-55
2023/12/04 09:57:08;;;;;;;1.00;0.98;;;;;;;;;;4406231;32;20122;-59
2023/12/04 09:59:35;;;;;;;2.65;1.42;;;;;;;;;;4408989;32;20085;-58
2023/12/04 10:02:01;;;;;;;0.60;0.60;;;;;;;;;;4394203;32;20804;-59
2023/12/04 10:04:27;;;;;;;1.17;1.08;;;;;;;;;;4388977;32;20085;-60
2023/12/04 10:06:53;;;;;;;0.90;0.90;;;;;;;;;;4408173;32;20826;-57
2023/12/04 10:09:22;;;;;;;0.50;0.50;;;;;;;;;;4404661;32;20078;-58
2023/12/04 10:11:48;;;;;;;0.60;0.60;;;;;;;;;;4389653;32;20077;-59
2023/12/04 10:14:17;;;;;;;0.60;0.60;;;;;;;;;;4404458;32;20098;-56
2023/12/04 10:16:43;;;;;;;0.43;0.43;;;;;;;;;;4400033;32;20142;-58
2023/12/04 10:19:16;;;;;;;1.05;1.05;;;;;;;;;;4405017;32;20077;-57
2023/12/04 10:21:42;;;;;;;0.50;0.50;;;;;;;;;;4377171;32;20090;-59
2023/12/04 10:24:08;;;;;;;0.70;0.70;;;;;;;;;;4383855;32;20139;-60
2023/12/04 10:26:34;;;;;;;0.68;0.68;;;;;;;;;;4386207;32;20510;-60
2023/12/04 10:29:01;;;;;;;0.47;0.47;;;;;;;;;;4392587;32;20140;-60
2023/12/04 10:31:27;;;;;;;2.28;0.90;;;;;;;;;;4404035;32;20787;-57
2023/12/04 10:33:54;;;;;;;0.40;0.40;;;;;;;;;;4395066;32;20097;-59
2023/12/04 10:36:20;;;;;;;0.45;0.45;;;;;;;;;;4389455;32;20080;-58
2023/12/04 10:38:46;;;;;;;0.57;0.57;;;;;;;;;;4391375;32;20093;-58
2023/12/04 10:41:13;;;;;;;0.60;0.60;;;;;;;;;;4395256;32;20864;-60
2023/12/04 10:43:47;;;;;;;0.50;0.50;;;;;;;;;;4392441;32;21402;-61
2023/12/04 10:46:16;;;;;;;0.55;0.55;;;;;;;;;;4398324;32;20081;-60
2023/12/04 10:48:42;;;;;;;1.35;1.25;;;;;;;;;;4394630;32;20167;-60
2023/12/04 10:51:08;;;;;;;0.40;0.40;;;;;;;;;;4393907;32;20805;-60
2023/12/04 10:53:34;;;;;;;0.50;0.50;;;;;;;;;;4403065;32;20185;-59
2023/12/04 10:56:02;;;;;;;0.40;0.40;;;;;;;;;;4400778;32;20066;-59
2023/12/04 10:58:28;;;;;;;0.60;0.60;;;;;;;;;;4390052;32;20683;-61
2023/12/04 11:00:56;;;;;;;0.60;0.60;;;;;;;;;;4394865;32;20065;-60
2023/12/04 11:03:26;;;;;;;0.93;0.93;;;;;;;;;;4403711;32;20081;-59
2023/12/04 11:05:55;;;;;;;1.80;1.12;;;;;;;;;;4386657;32;20478;-60
2023/12/04 11:08:21;;;;;;;0.50;0.50;;;;;;;;;;4394943;32;20110;-61
2023/12/04 11:11:06;;;;;;;0.82;0.82;;;;;;;;;;4384062;32;20081;-59
2023/12/04 11:13:33;;;;;;;0.50;0.50;;;;;;;;;;4390002;32;20168;-61
2023/12/04 11:16:02;;;;;;;0.60;0.60;;;-0.10;99.90;;;;;;4382202;32;20192;-59
2023/12/04 11:18:34;;;;;;;1.02;1.02;;;-0.20;99.90;;;;;;4391302;32;20113;-59
2023/12/04 11:21:06;;;;;;;0.65;0.60;;;-0.10;99.90;;;;;;4378442;32;21266;-59
2023/12/04 11:23:33;;;;;;;1.27;1.17;;;-0.10;99.90;;;;;;4400322;32;20082;-60
2023/12/04 11:26:00;;;;;;;1.35;1.02;;;-0.10;99.90;;;;;;4407679;32;21382;-60
2023/12/04 11:28:27;;;;;;;0.40;0.40;;;-0.10;99.90;;;;;;4409440;32;20108;-60
2023/12/04 11:30:54;;;;;;;1.10;1.02;;;-0.30;99.90;;;;;;4384589;32;20061;-61
2023/12/04 11:33:19;;;;;;;0.40;0.40;;;-0.20;99.90;;;;;;4401334;32;20678;-60
2023/12/04 11:35:45;;;;;;;0.50;0.50;;;-0.20;99.90;;;;;;4390880;32;20094;-60
2023/12/04 11:38:13;;;;;;;0.60;0.60;;;-0.10;99.90;;;;;;4411003;32;20110;-61
2023/12/04 11:40:42;;;;;;;0.50;0.50;;;0.10;99.90;;;;;;4392733;32;20168;-62
2023/12/04 11:43:29;;;;;;;1.37;1.25;;;0.10;99.90;;;;;;4408183;32;20589;-58
2023/12/04 11:46:08;;;;;;;0.50;0.50;;;0.20;99.90;;;;;;4390073;32;20085;-59
2023/12/04 11:48:33;;;;;;;0.73;0.70;;;0.30;99.90;;;;;;4408215;32;20580;-60
2023/12/04 11:51:00;;;;;;;0.57;0.57;;;0.40;99.90;;;;;;4402255;32;83777;-61
2023/12/04 11:53:26;;;;;;;0.50;0.50;;;0.30;99.90;;;;;;4402143;32;20572;-61
2023/12/04 11:55:56;;;;;;;0.45;0.45;;;0.40;99.90;;;;;;4393393;32;20086;-62
2023/12/04 11:58:22;;;;;;;;;;;0.20;99.90;;;;;;4380320;32;20310;-59
2023/12/04 12:00:48;;;;;;;0.47;0.47;;;0.20;99.90;;;;;;4394511;32;20057;-59
2023/12/04 12:03:14;;;;;;;0.45;0.45;;;0.30;99.90;;;;;;4398376;32;20152;-59
2023/12/04 12:05:41;;;;;;;0.40;0.40;;;0.30;99.90;;;;;;4388350;32;20808;-58
2023/12/04 12:08:07;;;;;;;0.60;0.60;;;0.40;99.90;;;;;;4385967;32;20085;-61
2023/12/04 12:10:33;;;;;;;0.82;0.82;;;0.30;99.90;;;;;;4402301;32;20089;-60
2023/12/04 12:12:59;;;;;;;0.40;0.40;;;0.30;99.90;;;;;;4398561;32;20239;-61
2023/12/04 12:15:25;;;;;;;42.72;1.70;;;0.30;99.90;;;;;;4399234;32;20887;-59
2023/12/04 12:17:51;;;;;;;0.50;0.50;;;0.30;99.90;;;;;;4378367;32;20620;-61
2023/12/04 12:20:17;;;;;;;1.67;1.10;;;0.30;99.90;;;;;;4384204;32;20078;-60
2023/12/04 12:22:43;;;;;;;0.40;0.40;;;0.30;99.90;;;;;;4386117;32;20109;-59
2023/12/04 12:25:11;;;;;;;0.40;0.40;;;0.40;99.90;;;;;;4382016;32;21774;-59
2023/12/04 12:27:37;;;;;;;1.25;1.12;;;0.50;99.90;;;;;;4388088;32;20503;-60
2023/12/04 12:30:04;;;;;;;0.40;0.40;;;0.60;99.90;;;;;;4375988;32;20076;-61
2023/12/04 12:32:30;;;;;;;0.50;0.50;;;0.50;99.90;;;;;;4385207;32;20097;-61
2023/12/04 12:34:56;;;;;;;0.43;0.43;;;0.50;99.90;;;;;;4380812;32;21213;-61
2023/12/04 12:37:21;;;;;;;1.23;1.08;;;0.50;99.90;;;;;;4400065;32;20155;-63
2023/12/04 12:39:47;;;;;;;0.50;0.50;;;0.60;99.90;;;;;;4406848;32;20069;-61
2023/12/04 12:42:22;;;;;;;0.57;0.57;;;0.60;99.90;;;;;;4383659;32;20093;-62
2023/12/04 12:44:48;;;;;;;0.73;0.73;;;0.50;99.90;;;;;;4384597;32;20189;-61
2023/12/04 12:47:16;;;;;;;0.40;0.40;;;0.40;99.90;;;;;;4394421;32;20807;-60
2023/12/04 12:49:43;;;;;;;1.17;0.98;;;0.40;99.90;;;;;;4399410;32;20097;-61
2023/12/04 12:52:09;;;;;;;13.48;1.80;;;0.50;99.90;;;;;;4400911;32;20524;-61
2023/12/04 12:54:40;;;;;;;0.40;0.40;;;0.50;99.90;;;;;;4386771;32;20135;-58
2023/12/04 12:57:06;;;;;;;0.60;0.60;;;0.60;99.90;;;;;;4402087;32;20155;-60
2023/12/04 12:59:33;;;;;;;0.40;0.40;;;0.50;99.90;;;;;;4407400;32;20136;-60
2023/12/04 13:02:00;;;;;;;0.45;0.45;;;0.50;99.90;;;;;;4391427;32;20101;-60
2023/12/04 13:04:26;;;;;;;0.35;0.35;;;0.40;99.90;;;;;;4401028;32;20105;-59
2023/12/04 13:06:52;;;;;;;0.85;0.85;;;0.40;99.90;;;;;;4383097;32;20084;-60
2023/12/04 13:09:18;;;;;;;0.70;0.70;;;0.40;99.90;;;;;;4385007;32;20102;-57
2023/12/04 13:11:45;;;;;;;0.40;0.40;;;0.50;99.90;;;;;;4401653;32;20096;-60
2023/12/04 13:14:10;;;;;;;5.62;1.15;;;0.50;99.90;;;;;;4404978;32;20073;-60
2023/12/04 13:16:36;;;;;;;0.40;0.40;;;0.50;99.90;;;;;;4403169;32;21668;-60